KBNA

Nashville International Airport

Nashville, Tennessee, USA
METAR KBNA 171553Z 17006KT 10SM FEW016 BKN023 BKN130 BKN250 28/21 A3010 RMK AO2 SLP185 T02780211
Observed Flight Rules
Aug-17 @ 15:53 UTC (58 minutes ago) Marginal Visual Flight Rules
Wind Visibility Clouds
170° at 6 knots 10 miles
  • Few at 1,600' AGL
  • Broken at 2,300' AGL
  • Broken at 13,000' AGL
  • Broken at 25,000' AGL
Temperatures Readings
Current 28°C / 82°F
Dewpoint 21°C / 70°F
Humidity 66%
Altimeter 30.1" Hg
Pressure 1018.5 hPa
Elevation 210
METAR KBNA 171553Z 17006KT 10SM FEW016 BKN023 BKN130 BKN250 28/21 A3010 RMK AO2 SLP185 T02780211
Observed Flight Rules
Aug-17 @ 15:53 UTC
(58 minutes ago)
MVFR
Wind Visibility
170° at 6 knots 10 miles
Clouds
  • Few at 1,600' AGL
  • Broken at 2,300' AGL
  • Broken at 13,000' AGL
  • Broken at 25,000' AGL
Temperature Dewpoint
28°C / 82°F 21°C / 70°F
Humidity Altimeter Pressure
66% 30.1" Hg 1018.5 hPa